createdAt,value
2022-12-25T00:00:35.411Z,98.10
2022-12-25T00:03:37.961Z,98.26
2022-12-25T00:06:39.933Z,97.94
2022-12-25T00:09:41.809Z,97.95
2022-12-25T00:12:43.789Z,97.96
2022-12-25T00:15:45.637Z,98.05
2022-12-25T00:18:47.655Z,98.36
2022-12-25T00:21:49.648Z,98.18
2022-12-25T00:24:51.511Z,97.95
2022-12-25T00:27:53.399Z,98.12
2022-12-25T00:30:55.270Z,97.91
2022-12-25T00:33:57.147Z,97.81
2022-12-25T00:36:58.972Z,97.94
2022-12-25T00:40:00.887Z,98.10
2022-12-25T00:43:02.668Z,98.09
2022-12-25T00:46:06.394Z,98.28
2022-12-25T00:49:08.791Z,98.17
2022-12-25T00:52:10.763Z,98.12
2022-12-25T00:55:12.721Z,97.92
2022-12-25T00:58:14.598Z,97.92
2022-12-25T01:01:16.742Z,97.81
2022-12-25T01:04:18.740Z,98.12
2022-12-25T01:07:22.543Z,97.98
2022-12-25T01:10:24.449Z,97.83
2022-12-25T01:13:27.379Z,97.86
2022-12-25T01:16:29.218Z,97.51
2022-12-25T01:19:31.106Z,97.71
2022-12-25T01:22:32.896Z,97.76
2022-12-25T01:25:34.826Z,97.67
2022-12-25T01:28:36.889Z,97.58
2022-12-25T01:31:38.773Z,97.57
2022-12-25T01:34:40.800Z,97.44
2022-12-25T01:37:42.625Z,97.48
2022-12-25T01:40:44.517Z,97.54
2022-12-25T01:43:57.331Z,97.61
2022-12-25T01:46:59.223Z,97.74
2022-12-25T01:50:01.091Z,97.50
2022-12-25T01:53:04.188Z,97.41
2022-12-25T01:56:08.386Z,97.38
2022-12-25T01:59:12.063Z,97.24
2022-12-25T02:02:14.815Z,97.38
2022-12-25T02:05:22.920Z,97.54
2022-12-25T02:08:25.173Z,97.40
2022-12-25T02:11:45.980Z,97.26
2022-12-25T02:14:49.907Z,97.28
2022-12-25T02:18:05.323Z,97.20
2022-12-25T02:21:19.188Z,97.28
2022-12-25T02:24:38.550Z,97.26
2022-12-25T02:28:07.823Z,97.61
2022-12-25T02:31:18.476Z,97.45
2022-12-25T02:34:44.181Z,97.26
2022-12-25T02:38:11.370Z,97.28
2022-12-25T02:41:16.667Z,97.42
2022-12-25T02:44:40.673Z,97.39
2022-12-25T02:48:01.126Z,97.52
2022-12-25T02:51:24.380Z,97.30
2022-12-25T02:54:53.396Z,97.45
2022-12-25T02:58:18.334Z,97.04
2022-12-25T03:01:46.559Z,97.42
2022-12-25T03:05:10.236Z,97.30
2022-12-25T03:08:18.699Z,97.15
2022-12-25T03:11:33.193Z,97.08
2022-12-25T03:14:53.645Z,97.41
2022-12-25T03:17:59.400Z,97.32
2022-12-25T03:21:20.444Z,97.29
2022-12-25T03:24:41.421Z,97.17
2022-12-25T03:27:47.879Z,97.09
2022-12-25T03:31:11.453Z,97.28
2022-12-25T03:34:43.628Z,97.35
2022-12-25T03:38:39.678Z,97.13
2022-12-25T03:42:06.538Z,97.15
2022-12-25T03:45:55.315Z,97.42
2022-12-25T03:49:23.883Z,97.09
2022-12-25T03:52:47.342Z,96.98
2022-12-25T03:56:09.929Z,97.06
2022-12-25T03:59:30.440Z,97.30
2022-12-25T04:02:50.977Z,97.02
2022-12-25T04:06:11.600Z,97.20
2022-12-25T04:09:32.009Z,97.05
2022-12-25T04:12:52.353Z,97.56
2022-12-25T04:16:13.483Z,97.21
2022-12-25T04:19:34.033Z,97.73
2022-12-25T04:22:54.449Z,97.83
2022-12-25T04:26:18.290Z,97.76
2022-12-25T04:29:38.687Z,97.69
2022-12-25T04:32:59.040Z,97.85
2022-12-25T04:36:09.832Z,97.94
2022-12-25T04:39:11.819Z,97.83
2022-12-25T04:42:13.746Z,97.64
2022-12-25T04:45:15.607Z,98.04
2022-12-25T04:48:17.370Z,97.86
2022-12-25T04:51:23.023Z,98.00
2022-12-25T04:54:24.882Z,98.04
2022-12-25T04:57:26.662Z,98.16
2022-12-25T05:00:28.506Z,98.12
2022-12-25T05:03:31.444Z,97.96
2022-12-25T05:06:33.210Z,98.11
2022-12-25T05:09:35.220Z,98.27
2022-12-25T05:12:37.192Z,98.44
2022-12-25T05:15:43.216Z,98.25
2022-12-25T05:18:45.297Z,98.31
2022-12-25T05:21:47.136Z,98.04
2022-12-25T05:24:49.068Z,97.91
2022-12-25T05:27:54.028Z,98.03
2022-12-25T05:30:57.540Z,97.86
2022-12-25T05:33:59.574Z,97.85
2022-12-25T05:37:01.404Z,97.70
2022-12-25T05:40:04.542Z,97.86
2022-12-25T05:43:06.930Z,97.93
2022-12-25T05:46:10.423Z,97.80
2022-12-25T05:49:12.346Z,97.93
2022-12-25T05:52:14.511Z,98.35
2022-12-25T05:55:16.518Z,98.13
2022-12-25T05:58:18.364Z,98.24
2022-12-25T06:01:23.239Z,98.07
2022-12-25T06:04:25.195Z,97.96
2022-12-25T06:07:27.036Z,98.28
2022-12-25T06:10:28.907Z,98.17
2022-12-25T06:13:31.602Z,98.20
2022-12-25T06:16:37.845Z,98.16
2022-12-25T06:19:41.985Z,98.02
2022-12-25T06:22:43.872Z,98.00
2022-12-25T06:25:45.741Z,97.79
2022-12-25T06:28:47.752Z,97.73
2022-12-25T06:31:49.762Z,97.65
2022-12-25T06:34:51.748Z,97.76
2022-12-25T06:37:53.930Z,97.92
2022-12-25T06:40:55.739Z,98.00
2022-12-25T06:44:00.159Z,97.88
2022-12-25T06:47:02.039Z,97.84
2022-12-25T06:50:06.044Z,97.82
2022-12-25T06:53:07.888Z,97.67
2022-12-25T06:56:15.975Z,97.82
2022-12-25T06:59:18.001Z,97.94
2022-12-25T07:02:22.427Z,97.89
2022-12-25T07:05:24.245Z,97.64
2022-12-25T07:08:26.135Z,97.86
2022-12-25T07:11:28.038Z,97.62
2022-12-25T07:14:29.899Z,97.43
2022-12-25T07:17:34.645Z,97.48
2022-12-25T07:20:36.880Z,97.21
2022-12-25T07:23:39.299Z,97.29
2022-12-25T07:26:41.098Z,97.23
2022-12-25T07:29:42.981Z,97.25
2022-12-25T07:32:49.982Z,97.13
2022-12-25T07:35:52.177Z,97.03
2022-12-25T07:38:53.969Z,97.05
2022-12-25T07:41:56.530Z,97.43
2022-12-25T07:45:02.491Z,97.40
2022-12-25T07:48:05.861Z,97.23
2022-12-25T07:51:12.503Z,97.21
2022-12-25T07:54:14.400Z,97.14
2022-12-25T07:57:16.237Z,96.98
2022-12-25T08:00:18.748Z,97.05
2022-12-25T08:03:20.908Z,97.20
2022-12-25T08:06:26.868Z,96.91
2022-12-25T08:09:28.754Z,96.87
2022-12-25T08:12:30.671Z,97.09
2022-12-25T08:15:32.602Z,96.88
2022-12-25T08:18:35.285Z,97.00
2022-12-25T08:21:38.180Z,96.75
2022-12-25T08:24:40.017Z,96.98
2022-12-25T08:27:41.856Z,96.89
2022-12-25T08:30:43.853Z,96.74
2022-12-25T08:33:46.303Z,96.43
2022-12-25T08:36:48.069Z,96.59
2022-12-25T08:39:49.936Z,96.42
2022-12-25T08:42:51.808Z,96.34
2022-12-25T08:45:53.747Z,96.46
2022-12-25T08:48:56.910Z,96.35
2022-12-25T08:51:58.897Z,96.29
2022-12-25T08:55:00.677Z,96.20
2022-12-25T08:58:02.577Z,96.45
2022-12-25T09:01:05.678Z,96.49
2022-12-25T09:04:07.780Z,96.42
2022-12-25T09:07:09.625Z,96.34
2022-12-25T09:10:11.627Z,96.31
2022-12-25T09:13:14.237Z,96.37
2022-12-25T09:16:20.324Z,96.23
2022-12-25T09:19:23.868Z,96.32
2022-12-25T09:22:26.064Z,96.52
2022-12-25T09:25:28.179Z,96.46
2022-12-25T09:28:30.560Z,96.24
2022-12-25T09:31:32.477Z,96.67
2022-12-25T09:34:34.601Z,96.55
2022-12-25T09:37:36.464Z,96.42
2022-12-25T09:41:02.977Z,96.15
2022-12-25T09:44:21.792Z,96.22
2022-12-25T09:47:27.972Z,96.54
2022-12-25T09:50:54.785Z,96.16
2022-12-25T09:54:07.205Z,96.26
2022-12-25T09:57:12.674Z,96.11
2022-12-25T10:00:17.496Z,96.36
2022-12-25T10:03:31.805Z,96.51
2022-12-25T10:06:51.650Z,96.69
2022-12-25T10:10:12.195Z,96.78
2022-12-25T10:13:22.857Z,96.73
2022-12-25T10:17:03.718Z,96.82
2022-12-25T10:20:14.101Z,96.73
2022-12-25T10:23:22.673Z,96.73
2022-12-25T10:26:26.658Z,96.45
2022-12-25T10:29:31.728Z,96.44
2022-12-25T10:32:34.042Z,96.49
2022-12-25T10:35:37.947Z,96.59
2022-12-25T10:38:39.800Z,96.70
2022-12-25T10:41:53.733Z,96.69
2022-12-25T10:45:04.675Z,96.64
2022-12-25T10:48:08.074Z,96.75
2022-12-25T10:51:10.607Z,96.86
2022-12-25T10:54:35.644Z,96.62
2022-12-25T10:57:45.956Z,96.50
2022-12-25T11:01:07.831Z,96.58
2022-12-25T11:04:20.117Z,96.70
2022-12-25T11:07:26.493Z,96.69
2022-12-25T11:10:32.345Z,96.25
2022-12-25T11:13:49.072Z,96.23
2022-12-25T11:16:51.095Z,96.47
2022-12-25T11:19:58.351Z,96.56
2022-12-25T11:23:00.210Z,96.67
2022-12-25T11:26:05.553Z,96.56
2022-12-25T11:29:23.418Z,96.46
2022-12-25T11:32:34.081Z,96.51
2022-12-25T11:35:46.104Z,96.50
2022-12-25T11:38:48.124Z,96.42
2022-12-25T11:41:59.006Z,96.63
2022-12-25T11:45:13.849Z,96.66
2022-12-25T11:48:25.921Z,96.66
2022-12-25T11:51:37.265Z,96.81
2022-12-25T11:54:50.886Z,96.80
2022-12-25T11:57:57.334Z,97.07
2022-12-25T12:01:03.172Z,96.69
2022-12-25T12:04:14.066Z,96.75
2022-12-25T12:07:26.792Z,96.80
2022-12-25T12:10:41.143Z,96.71
2022-12-25T12:14:16.590Z,96.64
2022-12-25T12:17:19.288Z,96.62
2022-12-25T12:20:24.553Z,96.71
2022-12-25T12:23:29.034Z,96.41
2022-12-25T12:26:37.951Z,96.38
2022-12-25T12:29:43.548Z,96.43
2022-12-25T12:32:50.259Z,96.57
2022-12-25T12:35:52.759Z,96.77
2022-12-25T12:38:56.936Z,96.47
2022-12-25T12:41:58.951Z,96.67
2022-12-25T12:45:17.722Z,96.47
2022-12-25T12:48:26.414Z,96.83
2022-12-25T12:51:32.149Z,96.80
2022-12-25T12:54:51.415Z,96.47
2022-12-25T12:58:00.305Z,96.32
2022-12-25T13:01:17.539Z,96.54
2022-12-25T13:04:37.680Z,96.59
2022-12-25T13:07:54.206Z,96.64
2022-12-25T13:11:22.785Z,96.92
2022-12-25T13:14:25.154Z,96.92
2022-12-25T13:17:28.411Z,97.02
2022-12-25T13:20:47.090Z,96.94
2022-12-25T13:23:49.013Z,96.80
2022-12-25T13:26:51.490Z,96.89
2022-12-25T13:29:53.341Z,96.63
2022-12-25T13:32:57.018Z,96.77
2022-12-25T13:35:59.273Z,96.65
2022-12-25T13:39:01.679Z,96.70
2022-12-25T13:42:07.052Z,96.60
2022-12-25T13:45:30.441Z,96.49
2022-12-25T13:48:32.859Z,96.46
2022-12-25T13:51:34.746Z,96.36
2022-12-25T13:54:36.589Z,96.44
2022-12-25T13:57:41.840Z,96.36
2022-12-25T14:00:48.842Z,96.30
2022-12-25T14:03:51.449Z,96.53
2022-12-25T14:06:54.130Z,96.27
2022-12-25T14:10:02.282Z,96.06
2022-12-25T14:13:07.271Z,96.42
2022-12-25T14:16:10.036Z,96.34
2022-12-25T14:19:24.820Z,96.16
2022-12-25T14:22:27.955Z,96.18
2022-12-25T14:25:33.452Z,96.34
2022-12-25T14:28:37.132Z,96.12
2022-12-25T14:31:39.991Z,96.17
2022-12-25T14:34:43.966Z,96.03
2022-12-25T14:37:46.741Z,96.01
2022-12-25T14:40:58.450Z,96.10
2022-12-25T14:44:02.611Z,96.23
2022-12-25T14:47:19.247Z,95.96
2022-12-25T14:50:42.468Z,96.28
2022-12-25T14:53:52.466Z,96.19
2022-12-25T14:56:56.327Z,96.16
2022-12-25T15:00:02.299Z,96.12
2022-12-25T15:03:20.833Z,95.87
2022-12-25T15:06:24.857Z,95.95
2022-12-25T15:09:29.928Z,95.92
2022-12-25T15:12:32.043Z,96.05
2022-12-25T15:15:34.765Z,95.68
2022-12-25T15:18:39.649Z,95.77
2022-12-25T15:21:41.607Z,95.93
2022-12-25T15:24:43.941Z,95.49
2022-12-25T15:27:45.716Z,95.50
2022-12-25T15:30:48.040Z,95.57
2022-12-25T15:33:50.599Z,95.71
2022-12-25T15:36:53.078Z,95.66
2022-12-25T15:39:57.405Z,95.73
2022-12-25T15:42:59.860Z,95.34
2022-12-25T15:46:01.819Z,95.58
2022-12-25T15:49:03.872Z,95.52
2022-12-25T15:52:12.737Z,95.26
2022-12-25T15:55:15.667Z,95.17
2022-12-25T15:58:17.425Z,95.10
2022-12-25T16:01:21.072Z,95.24
2022-12-25T16:04:25.105Z,94.94
2022-12-25T16:07:28.968Z,95.17
2022-12-25T16:10:36.657Z,94.91
2022-12-25T16:13:40.515Z,95.02
2022-12-25T16:16:42.489Z,95.17
2022-12-25T16:19:47.367Z,94.99
2022-12-25T16:22:49.271Z,94.69
2022-12-25T16:25:51.201Z,94.99
2022-12-25T16:28:53.057Z,95.00
2022-12-25T16:31:55.222Z,94.94
2022-12-25T16:34:57.146Z,94.96
2022-12-25T16:37:59.005Z,94.79
2022-12-25T16:41:01.871Z,94.71
2022-12-25T16:44:09.455Z,95.05
2022-12-25T16:47:12.089Z,95.14
2022-12-25T16:50:14.143Z,95.09
2022-12-25T16:53:16.021Z,94.85
2022-12-25T16:56:20.712Z,94.72
2022-12-25T16:59:22.642Z,94.84
2022-12-25T17:02:24.744Z,95.05
2022-12-25T17:05:27.081Z,94.77
2022-12-25T17:08:29.105Z,94.76
2022-12-25T17:11:31.465Z,94.76
2022-12-25T17:14:34.375Z,94.84
2022-12-25T17:17:36.372Z,94.90
2022-12-25T17:20:38.366Z,94.71
2022-12-25T17:23:40.544Z,94.50
2022-12-25T17:26:43.972Z,94.58
2022-12-25T17:29:48.520Z,94.52
2022-12-25T17:32:51.266Z,94.59
2022-12-25T17:35:55.133Z,94.76
2022-12-25T17:39:01.802Z,94.50
2022-12-25T17:42:03.795Z,94.30
2022-12-25T17:45:06.131Z,94.43
2022-12-25T17:48:07.984Z,94.29
2022-12-25T17:51:12.624Z,94.54
2022-12-25T17:54:14.856Z,94.89
2022-12-25T17:57:16.637Z,94.30
2022-12-25T18:00:18.930Z,94.65
2022-12-25T18:03:22.139Z,94.40
2022-12-25T18:06:27.341Z,94.45
2022-12-25T18:09:29.472Z,94.55
2022-12-25T18:12:32.672Z,94.53
2022-12-25T18:15:39.461Z,94.24
2022-12-25T18:18:49.684Z,94.40
2022-12-25T18:21:53.945Z,94.56
2022-12-25T18:24:55.770Z,94.39
2022-12-25T18:27:57.704Z,94.24
2022-12-25T18:31:00.585Z,94.03
2022-12-25T18:34:02.544Z,94.28
2022-12-25T18:37:04.616Z,94.32
2022-12-25T18:40:09.432Z,94.14
2022-12-25T18:43:11.482Z,94.13
2022-12-25T18:46:15.476Z,94.13
2022-12-25T18:49:17.477Z,94.24
2022-12-25T18:52:47.308Z,94.08
2022-12-25T18:55:42.229Z,94.08
2022-12-25T18:58:44.246Z,93.94
2022-12-25T19:01:46.611Z,94.10
2022-12-25T19:04:49.025Z,94.07
2022-12-25T19:07:51.070Z,94.09
2022-12-25T19:10:52.994Z,94.21
2022-12-25T19:13:55.059Z,93.89
2022-12-25T19:16:57.185Z,94.01
2022-12-25T19:19:59.152Z,94.37
2022-12-25T19:23:03.872Z,94.48
2022-12-25T19:26:07.010Z,94.31
2022-12-25T19:29:08.920Z,94.29
2022-12-25T19:32:10.892Z,94.17
2022-12-25T19:35:13.932Z,94.69
2022-12-25T19:38:16.377Z,94.40
2022-12-25T19:41:20.296Z,94.21
2022-12-25T19:44:22.234Z,94.37
2022-12-25T19:47:24.263Z,93.91
2022-12-25T19:50:28.543Z,94.46
2022-12-25T19:53:32.025Z,94.10
2022-12-25T19:56:34.695Z,94.28
2022-12-25T19:59:36.581Z,94.51
2022-12-25T20:02:38.741Z,94.44
2022-12-25T20:05:44.222Z,94.43
2022-12-25T20:08:52.720Z,94.24
2022-12-25T20:11:54.627Z,94.06
2022-12-25T20:14:56.638Z,94.27
2022-12-25T20:17:58.467Z,94.49
2022-12-25T20:21:10.559Z,94.13
2022-12-25T20:24:12.499Z,94.31
2022-12-25T20:27:14.485Z,94.18
2022-12-25T20:30:16.449Z,93.95
2022-12-25T20:33:18.261Z,94.08
2022-12-25T20:36:20.880Z,94.19
2022-12-25T20:39:22.813Z,94.33
2022-12-25T20:42:24.739Z,94.06
2022-12-25T20:45:26.625Z,94.12
2022-12-25T20:48:28.840Z,94.18
2022-12-25T20:51:30.785Z,94.19
2022-12-25T20:54:33.557Z,94.24
2022-12-25T20:57:35.645Z,94.02
2022-12-25T21:00:40.395Z,94.23
2022-12-25T21:03:42.882Z,93.98
2022-12-25T21:06:44.964Z,94.03
2022-12-25T21:09:46.977Z,93.65
2022-12-25T21:12:48.816Z,94.10
2022-12-25T21:15:52.669Z,94.16
2022-12-25T21:18:54.784Z,93.93
2022-12-25T21:21:56.654Z,94.00
2022-12-25T21:24:58.534Z,94.05
2022-12-25T21:28:00.373Z,93.59
2022-12-25T21:31:07.055Z,93.80
2022-12-25T21:34:09.071Z,93.74
2022-12-25T21:37:10.930Z,93.74
2022-12-25T21:40:16.366Z,93.85
2022-12-25T21:43:18.580Z,93.80
2022-12-25T21:46:20.692Z,93.70
2022-12-25T21:49:41.137Z,93.99
2022-12-25T21:52:45.016Z,93.64
2022-12-25T21:56:02.001Z,93.93
2022-12-25T21:59:06.165Z,94.26
2022-12-25T22:02:11.561Z,93.88
2022-12-25T22:05:33.721Z,93.89
2022-12-25T22:08:35.663Z,93.83
2022-12-25T22:11:57.145Z,93.75
2022-12-25T22:15:03.183Z,93.89
2022-12-25T22:18:23.717Z,93.67
2022-12-25T22:21:25.611Z,93.72
2022-12-25T22:24:27.448Z,93.78
2022-12-25T22:27:34.271Z,93.61
2022-12-25T22:30:36.186Z,93.49
2022-12-25T22:33:38.053Z,93.66
2022-12-25T22:36:39.907Z,93.51
2022-12-25T22:39:41.895Z,93.52
2022-12-25T22:42:44.359Z,93.42
2022-12-25T22:45:47.584Z,93.82
2022-12-25T22:48:51.124Z,93.56
2022-12-25T22:51:55.110Z,93.69
2022-12-25T22:54:58.467Z,93.75
2022-12-25T22:58:01.870Z,93.44
2022-12-25T23:01:09.184Z,93.70
2022-12-25T23:04:13.189Z,93.40
2022-12-25T23:07:18.988Z,93.27
2022-12-25T23:10:22.568Z,93.66
2022-12-25T23:13:44.395Z,93.63
2022-12-25T23:16:47.729Z,93.06
2022-12-25T23:20:08.397Z,93.57
2022-12-25T23:23:34.073Z,93.33
2022-12-25T23:26:35.933Z,93.51
2022-12-25T23:29:39.325Z,93.46
2022-12-25T23:32:41.795Z,93.37
2022-12-25T23:35:43.630Z,93.20
2022-12-25T23:38:45.723Z,93.49
2022-12-25T23:41:47.511Z,93.48
2022-12-25T23:44:49.388Z,93.60
2022-12-25T23:47:51.270Z,93.65
2022-12-25T23:50:53.252Z,93.65
2022-12-25T23:53:55.264Z,93.46
2022-12-25T23:56:57.876Z,93.44
2022-12-25T23:59:59.781Z,93.74
